Nearby METAR Reports

 

LJLJ - Ljubljana/Brnik, Slovenia
Distance from station: W 41km
Updated: 21/10/2020 23:30
Few Clouds
Few Clouds
 Wind from varies
Wind: varies 4 km/h
Temperature: 11°C
Dew Point: 7°C
Humidity: 77%
Barometer: 1021 hPa
Clouds: Few Clouds
Visibility: 10 km
Cloud details: Few Clouds 1219 m
2020/10/21 21:30 LJLJ 212130Z VRB02KT 9999 FEW040 11/07 Q1021 NOSIG
LJMB - Maribor, Slovenia
Distance from station: NE 63km
Updated: 21/10/2020 23:30
Clear
Clear
 Wind from SSW
Wind: SSW 26 km/h
Temperature: 13°C
Dew Point: 7°C
Humidity: 67%
Barometer: 1016 hPa
Clouds: Clear
Visibility: 10 km
2020/10/21 21:30 LJMB 212130Z AUTO 21014KT 9999 NCD 13/07 Q1016
 
LJPZ - Portoroz, Slovenia
Distance from station: SW 130km
Updated: 21/10/2020 23:30
Mist, Clear
Mist, Clear
 Wind from ESE
Wind: ESE 6 km/h
Temperature: 10°C
Dew Point: 10°C
Humidity: 100%
Barometer: 1024 hPa
Summary: Mist
Clouds: Clear
Visibility: 3 km
2020/10/21 21:30 LJPZ 212130Z AUTO 12003KT 3200 BR NCD 10/10 Q1024
LJCE - Cerklje, Slovenia
Distance from station: ESE 49km
Updated: 21/10/2020 23:30
Clear
Clear
 Wind from WSW
Wind: WSW 11 km/h
Temperature: 12°C
Dew Point: 7°C
Humidity: 72%
Barometer: 1020 hPa
Clouds: Clear
Visibility: 10 km
2020/10/21 21:30 LJCE 212130Z AUTO 24006KT 210V280 9999 NCD 12/07 Q1020
 
LDZA - Zagreb/Pleso, Croatia
Distance from station: ESE 96km
Updated: 21/10/2020 23:30
Clear
Clear
 Wind from SW
Wind: SW 11 km/h
Temperature: 11°C
Dew Point: 7°C
Humidity: 77%
Barometer: 1020 hPa
Summary: Clear
Visibility: greater than 10 km
2020/10/21 21:30 LDZA 212130Z 22006KT CAVOK 11/07 Q1020 NOSIG
LDRI - Rijeka/Omisalj, Croatia
Distance from station: SSW 109km
Updated: 21/10/2020 23:30
Clear
Clear
 Wind from ESE
Wind: ESE 6 km/h
Temperature: 11°C
Dew Point: 10°C
Humidity: 94%
Barometer: 1024 hPa
Summary: Clear
Visibility: greater than 10 km
2020/10/21 21:30 LDRI 212130Z 11003KT CAVOK 11/10 Q1024
 
LDPL - Pula, Croatia
Distance from station: SSW 164km
Updated: 21/10/2020 23:30
Clear
Clear
 Wind from ENE
Wind: ENE 6 km/h
Temperature: 11°C
Dew Point: 10°C
Humidity: 94%
Barometer: 1024 hPa
Summary: Clear
Visibility: greater than 10 km
2020/10/21 21:30 LDPL 212130Z 06003KT CAVOK 11/10 Q1024 NOSIG
LOWK - Klagenfurt(Civ/M, Austria
Distance from station: NW 76km
Updated: 21/10/2020 23:20
Clear
Clear
 Wind from varies
Wind: varies 2 km/h
Temperature: 8°C
Dew Point: 6°C
Humidity: 87%
Barometer: 1019 hPa
Clouds: Clear
Visibility: 10 km
2020/10/21 21:20 LOWK 212120Z AUTO VRB01KT 9999 NCD 08/06 Q1019 NOSIG
 
LOWG - Graz (mil/Civ), Austria
Distance from station: NNE 100km
Updated: 21/10/2020 23:20
Patches of fog, Few clouds
Patches of fog, Few clouds
 Wind from varies
Wind: varies 4 km/h
Temperature: 7°C
Dew Point: 6°C
Humidity: 93%
Barometer: 1016 hPa
Summary: Patches of Fog
Clouds: Few Clouds
Visibility: 5 km
Cloud details: Few Clouds 61 m
2020/10/21 21:20 LOWG 212120Z VRB02KT 4500 0400S R17/P1500D R35/0450D BCFG FEW002 07/06 Q1016 BECMG 0500 FG
LOAN - Wr.neustadt East, Austria
Distance from station: NNE 212km
Updated: 21/10/2020 18:00
NOT Current
Few Clouds
Few Clouds
 Wind from WSW
Wind: WSW 2 km/h
Clouds: Few Clouds
Cloud details: Few Clouds 914 m
2020/10/21 16:00 LOAN 211600Z 24001KT 10KM FEW030CU
 
LIPQ - Ronchi Legionari, Italy
Distance from station: SW 35km
Updated: 21/10/2020 23:20
Fog, Overcast
Fog, Overcast
 Wind from NNE
Wind: NNE 7 km/h
Temperature: 10°C
Wind Chill: 9°C
Dew Point: 10°C
Humidity: 100%
Barometer: 1024 hPa
Summary: Fog
Clouds: Overcast
Visibility: 0 km
Cloud details: Overcast 152 m
2020/10/21 21:20 LIPQ 212120Z AUTO 02004KT 0100 R09/0375N FG VV005 10/10 Q1024
LIVT - Trieste, Italy
Distance from station: WSW 109km
Updated: 21/10/2020 19:55
NOT Current
Partly cloudy
Partly cloudy
 Wind from varies
Wind: varies 0 km/h
Temperature: 16°C
Dew Point: 15°C
Humidity: 94%
Barometer: 1023 hPa
Clouds: Partly cloudy
Visibility: 10 km
Cloud details: Partly cloudy 914 m
2020/10/21 17:55 LIVT 211755Z /////KT 9999 SCT030 16/15 Q1023 RMK SCT QUK / QUL / VIS MAR 20 KM VIS MIN 9999
 
LIVO - Tarvisio, Italy
Distance from station: NNW 49km
Updated: 21/10/2020 19:55
NOT Current
Clear
Clear
 Wind from WNW
Wind: WNW 6 km/h
Temperature: 10°C
Dew Point: 6°C
Humidity: 76%
Barometer: 1021 hPa
Summary: Clear
Visibility: greater than 10 km
2020/10/21 17:55 LIVO 211755Z 29003KT CAVOK 10/06 Q1021 RMK BKN BKN200 VIS MIN 9999
LIPZ - Venezia/Tessera, Italy
Distance from station: WSW 217km
Updated: 21/10/2020 23:20
Fog, Partly cloudy
Fog, Partly cloudy
 Wind from varies
Wind: varies 4 km/h
Temperature: 13°C
Dew Point: 13°C
Humidity: 100%
Barometer: 1024 hPa
Summary: Fog
Clouds: Partly cloudy
Visibility: 0 km
2020/10/21 21:20 LIPZ 212120Z VRB02KT 0300 R04R/0900D FG NSC 13/13 Q1024 NOSIG
 
LHSM - Balaton, Hungary
Distance from station: ENE 177km
Updated: 21/10/2020 23:15
Clear
Clear
 Wind from S
Wind: S 13 km/h
Temperature: 12°C
Dew Point: 8°C
Humidity: 77%
Barometer: 1017 hPa
Summary: Clear
Visibility: greater than 10 km
2020/10/21 21:15 LHSM 212115Z AUTO 19007KT CAVOK 12/08 Q1017